createdAt,value
2022-12-19T00:01:48.966Z,21.53
2022-12-19T00:04:12.390Z,22.63
2022-12-19T00:06:33.957Z,25.80
2022-12-19T00:08:57.039Z,23.53
2022-12-19T00:11:20.487Z,22.93
2022-12-19T00:13:42.841Z,28.07
2022-12-19T00:16:13.662Z,24.20
2022-12-19T00:18:35.232Z,22.53
2022-12-19T00:20:59.014Z,24.10
2022-12-19T00:23:20.537Z,22.07
2022-12-19T00:25:42.046Z,19.90
2022-12-19T00:28:04.441Z,21.23
2022-12-19T00:30:26.086Z,22.13
2022-12-19T00:32:47.759Z,26.33
2022-12-19T00:35:09.534Z,23.87
2022-12-19T00:37:31.027Z,25.40
2022-12-19T00:39:52.548Z,23.37
2022-12-19T00:42:14.043Z,22.57
2022-12-19T00:44:35.550Z,27.27
2022-12-19T00:46:57.025Z,24.27
2022-12-19T00:49:18.536Z,24.40
2022-12-19T00:51:40.145Z,23.77
2022-12-19T00:54:02.288Z,24.17
2022-12-19T00:56:29.148Z,23.53
2022-12-19T00:58:50.884Z,22.10
2022-12-19T01:01:17.864Z,23.67
2022-12-19T01:03:39.601Z,24.00
2022-12-19T01:06:01.409Z,24.47
2022-12-19T01:08:23.348Z,23.03
2022-12-19T01:10:48.066Z,23.47
2022-12-19T01:13:09.547Z,23.57
2022-12-19T01:15:31.044Z,25.03
2022-12-19T01:17:52.558Z,22.47
2022-12-19T01:20:17.604Z,22.53
2022-12-19T01:22:41.785Z,22.90
2022-12-19T01:25:03.588Z,22.33
2022-12-19T01:27:25.099Z,24.17
2022-12-19T01:29:52.683Z,26.37
2022-12-19T01:32:14.451Z,22.17
2022-12-19T01:34:35.948Z,25.43
2022-12-19T01:36:57.433Z,22.57
2022-12-19T01:39:18.962Z,28.27
2022-12-19T01:41:40.538Z,27.60
2022-12-19T01:44:05.642Z,24.53
2022-12-19T01:46:51.616Z,22.93
2022-12-19T01:49:26.356Z,24.70
2022-12-19T01:51:49.493Z,22.67
2022-12-19T01:54:15.769Z,21.70
2022-12-19T01:56:42.389Z,21.60
2022-12-19T01:59:10.264Z,25.83
2022-12-19T02:01:32.115Z,25.13
2022-12-19T02:03:56.239Z,25.33
2022-12-19T02:06:17.847Z,24.77
2022-12-19T02:08:41.922Z,21.97
2022-12-19T02:11:03.518Z,24.30
2022-12-19T02:13:25.118Z,24.80
2022-12-19T02:15:56.113Z,24.33
2022-12-19T02:18:38.845Z,26.00
2022-12-19T02:21:21.900Z,26.67
2022-12-19T02:24:04.467Z,28.00
2022-12-19T02:26:53.496Z,27.53
2022-12-19T02:29:33.525Z,26.33
2022-12-19T02:32:28.858Z,26.97
2022-12-19T02:34:58.264Z,23.53
2022-12-19T02:37:36.230Z,25.90
2022-12-19T02:40:16.114Z,24.47
2022-12-19T02:42:45.645Z,26.20
2022-12-19T02:45:10.008Z,26.63
2022-12-19T02:47:32.593Z,26.03
2022-12-19T02:49:54.157Z,26.23
2022-12-19T02:52:21.496Z,28.73
2022-12-19T02:54:44.883Z,24.90
2022-12-19T02:57:51.177Z,27.40
2022-12-19T03:00:22.047Z,35.23
2022-12-19T03:03:00.426Z,28.00
2022-12-19T03:05:35.365Z,25.97
2022-12-19T03:08:09.234Z,23.30
2022-12-19T03:10:46.084Z,26.77
2022-12-19T03:13:27.090Z,24.77
2022-12-19T03:15:49.303Z,26.57
2022-12-19T03:18:11.346Z,25.87
2022-12-19T03:20:57.784Z,27.03
2022-12-19T03:23:19.943Z,24.83
2022-12-19T03:25:45.777Z,25.83
2022-12-19T03:28:12.223Z,26.13
2022-12-19T03:30:36.219Z,27.37
2022-12-19T03:32:58.175Z,28.73
2022-12-19T03:35:28.616Z,25.87
2022-12-19T03:37:52.383Z,24.47
2022-12-19T03:40:25.986Z,28.27
2022-12-19T03:43:08.619Z,28.47
2022-12-19T03:45:48.633Z,27.83
2022-12-19T03:48:17.673Z,28.73
2022-12-19T03:51:16.581Z,29.37
2022-12-19T03:54:29.147Z,27.10
2022-12-19T03:56:58.152Z,26.30
2022-12-19T03:59:28.166Z,27.80
2022-12-19T04:01:52.002Z,26.67
2022-12-19T04:04:14.274Z,27.47
2022-12-19T04:06:37.691Z,25.50
2022-12-19T04:09:00.153Z,26.83
2022-12-19T04:11:22.526Z,26.50
2022-12-19T04:13:54.687Z,28.37
2022-12-19T04:16:27.664Z,28.40
2022-12-19T04:18:56.268Z,28.67
2022-12-19T04:21:25.192Z,27.93
2022-12-19T04:23:52.991Z,28.77
2022-12-19T04:26:16.597Z,32.37
2022-12-19T04:28:47.140Z,30.17
2022-12-19T04:31:13.512Z,33.83
2022-12-19T04:33:35.000Z,32.93
2022-12-19T04:35:56.545Z,25.87
2022-12-19T04:38:18.057Z,26.57
2022-12-19T04:40:41.778Z,29.63
2022-12-19T04:43:03.439Z,27.47
2022-12-19T04:45:24.928Z,26.90
2022-12-19T04:47:46.701Z,32.57
2022-12-19T04:50:09.649Z,30.03
2022-12-19T04:52:31.196Z,34.07
2022-12-19T04:54:52.704Z,30.33
2022-12-19T04:57:14.222Z,29.13
2022-12-19T04:59:35.717Z,26.43
2022-12-19T05:01:57.590Z,28.40
2022-12-19T05:04:19.828Z,32.30
2022-12-19T05:06:41.336Z,29.77
2022-12-19T05:09:02.929Z,29.10
2022-12-19T05:11:24.537Z,29.70
2022-12-19T05:13:46.093Z,29.73
2022-12-19T05:16:10.792Z,30.40
2022-12-19T05:18:32.687Z,31.63
2022-12-19T05:20:54.639Z,32.07
2022-12-19T05:23:17.420Z,30.43
2022-12-19T05:25:39.450Z,31.10
2022-12-19T05:28:00.933Z,31.90
2022-12-19T05:30:24.439Z,30.93
2022-12-19T05:32:45.911Z,30.83
2022-12-19T05:35:08.314Z,32.50
2022-12-19T05:37:29.958Z,30.67
2022-12-19T05:39:51.527Z,35.87
2022-12-19T05:42:13.043Z,33.37
2022-12-19T05:44:34.573Z,35.30
2022-12-19T05:46:56.209Z,31.40
2022-12-19T05:49:17.826Z,33.40
2022-12-19T05:51:39.463Z,33.03
2022-12-19T05:54:01.324Z,32.67
2022-12-19T05:56:23.433Z,36.23
2022-12-19T05:58:45.817Z,32.87
2022-12-19T06:01:10.304Z,33.83
2022-12-19T06:03:31.918Z,31.90
2022-12-19T06:05:53.675Z,32.67
2022-12-19T06:08:15.130Z,30.30
2022-12-19T06:10:36.636Z,30.43
2022-12-19T06:12:58.110Z,34.20
2022-12-19T06:15:19.725Z,32.10
2022-12-19T06:17:41.212Z,33.80
2022-12-19T06:20:02.763Z,35.17
2022-12-19T06:22:24.271Z,34.83
2022-12-19T06:24:45.769Z,33.73
2022-12-19T06:27:07.278Z,32.67
2022-12-19T06:29:28.809Z,34.10
2022-12-19T06:31:50.322Z,33.67
2022-12-19T06:34:22.073Z,34.33
2022-12-19T06:36:53.708Z,34.77
2022-12-19T06:39:15.784Z,31.33
2022-12-19T06:41:55.663Z,35.60
2022-12-19T06:44:17.834Z,36.53
2022-12-19T06:46:40.313Z,36.67
2022-12-19T06:49:02.489Z,36.30
2022-12-19T06:51:24.217Z,34.50
2022-12-19T06:53:45.691Z,36.77
2022-12-19T06:56:07.343Z,37.33
2022-12-19T06:58:28.997Z,34.13
2022-12-19T07:00:50.610Z,35.40
2022-12-19T07:03:14.874Z,35.63
2022-12-19T07:05:36.582Z,32.97
2022-12-19T07:07:58.049Z,35.43
2022-12-19T07:10:19.667Z,32.77
2022-12-19T07:12:41.230Z,35.90
2022-12-19T07:15:02.819Z,36.70
2022-12-19T07:17:25.931Z,32.00
2022-12-19T07:19:47.734Z,37.67
2022-12-19T07:22:09.703Z,36.80
2022-12-19T07:24:31.996Z,34.57
2022-12-19T07:26:53.600Z,37.30
2022-12-19T07:29:15.206Z,32.77
2022-12-19T07:31:36.746Z,36.30
2022-12-19T07:33:58.530Z,36.97
2022-12-19T07:36:21.198Z,39.10
2022-12-19T07:38:42.683Z,39.17
2022-12-19T07:41:04.211Z,34.07
2022-12-19T07:43:26.090Z,38.67
2022-12-19T07:45:53.659Z,36.83
2022-12-19T07:48:15.219Z,35.30
2022-12-19T07:50:37.105Z,35.73
2022-12-19T07:52:59.217Z,38.73
2022-12-19T07:55:20.832Z,36.40
2022-12-19T07:57:42.331Z,37.77
2022-12-19T08:00:04.843Z,33.93
2022-12-19T08:02:26.473Z,39.87
2022-12-19T08:04:48.171Z,35.63
2022-12-19T08:07:09.644Z,37.93
2022-12-19T08:09:31.477Z,33.70
2022-12-19T08:11:53.706Z,37.33
2022-12-19T08:14:15.246Z,35.87
2022-12-19T08:16:55.524Z,38.53
2022-12-19T08:19:18.217Z,40.57
2022-12-19T08:21:39.693Z,39.97
2022-12-19T08:24:01.255Z,38.60
2022-12-19T08:26:26.744Z,41.43
2022-12-19T08:28:48.254Z,41.00
2022-12-19T08:31:12.621Z,34.60
2022-12-19T08:33:34.569Z,39.33
2022-12-19T08:35:56.063Z,36.73
2022-12-19T08:38:17.596Z,41.37
2022-12-19T08:40:44.215Z,40.27
2022-12-19T08:43:08.652Z,40.87
2022-12-19T08:45:30.513Z,40.10
2022-12-19T08:47:52.774Z,38.43
2022-12-19T08:50:14.422Z,42.83
2022-12-19T08:52:36.321Z,38.77
2022-12-19T08:54:58.067Z,37.40
2022-12-19T08:57:19.583Z,43.27
2022-12-19T08:59:41.123Z,37.30
2022-12-19T09:02:06.058Z,41.53
2022-12-19T09:05:57.617Z,41.30
2022-12-19T09:07:10.132Z,43.00
2022-12-19T09:09:31.621Z,38.87
2022-12-19T10:26:51.861Z,49.57
2022-12-19T10:31:57.669Z,44.73
2022-12-19T10:34:28.576Z,45.20
2022-12-19T10:37:25.549Z,48.33
2022-12-19T10:40:24.468Z,47.67
2022-12-19T10:43:03.294Z,48.00
2022-12-19T10:45:40.586Z,46.10
2022-12-19T10:48:04.643Z,44.27
2022-12-19T10:50:29.710Z,45.87
2022-12-19T10:52:56.835Z,43.27
2022-12-19T10:55:27.273Z,45.17
2022-12-19T10:57:48.850Z,48.37
2022-12-19T11:00:18.213Z,45.47
2022-12-19T11:02:42.386Z,47.17
2022-12-19T11:05:22.184Z,47.50
2022-12-19T11:08:03.833Z,47.60
2022-12-19T11:12:47.444Z,46.03
2022-12-19T11:19:30.243Z,44.67
2022-12-19T11:21:27.024Z,44.20
2022-12-19T11:29:27.341Z,43.60
2022-12-19T11:29:30.012Z,44.03
2022-12-19T11:29:31.958Z,41.70
2022-12-19T11:30:46.602Z,45.03
2022-12-19T11:33:16.536Z,45.73
2022-12-19T11:35:51.240Z,49.50
2022-12-19T11:38:16.889Z,49.93
2022-12-19T11:40:52.994Z,46.53
2022-12-19T11:46:13.879Z,49.27
2022-12-19T11:48:48.137Z,48.63
2022-12-19T11:51:40.095Z,46.83
2022-12-19T11:54:18.937Z,47.77
2022-12-19T11:56:41.005Z,42.20
2022-12-19T11:59:12.321Z,50.27
2022-12-19T12:01:54.316Z,47.27
2022-12-19T12:04:33.893Z,46.13
2022-12-19T12:06:57.833Z,44.47
2022-12-19T12:13:21.486Z,46.67
2022-12-19T12:19:58.960Z,50.10
2022-12-19T12:25:20.517Z,51.93
2022-12-19T12:31:01.644Z,48.17
2022-12-19T12:31:23.775Z,46.17
2022-12-19T12:31:44.721Z,46.87
2022-12-19T12:31:49.682Z,46.53
2022-12-19T12:35:46.221Z,48.53
2022-12-19T12:40:47.123Z,44.40
2022-12-19T12:43:17.678Z,47.30
2022-12-19T12:45:41.978Z,51.63
2022-12-19T12:48:07.771Z,47.87
2022-12-19T12:50:31.405Z,49.30
2022-12-19T12:52:58.126Z,50.40
2022-12-19T12:55:33.813Z,48.63
2022-12-19T12:57:55.777Z,52.50
2022-12-19T13:00:29.476Z,51.87
2022-12-19T13:02:58.387Z,50.07
2022-12-19T13:05:22.914Z,53.80
2022-12-19T13:07:54.117Z,47.50
2022-12-19T13:10:18.736Z,47.87
2022-12-19T13:13:03.856Z,47.20
2022-12-19T13:15:32.674Z,53.93
2022-12-19T13:17:54.101Z,49.90
2022-12-19T13:20:18.466Z,52.60
2022-12-19T13:22:42.579Z,45.23
2022-12-19T13:25:26.589Z,44.50
2022-12-19T13:27:48.504Z,48.00
2022-12-19T13:30:17.354Z,48.90
2022-12-19T13:32:38.812Z,47.90
2022-12-19T13:35:06.981Z,46.33
2022-12-19T13:39:54.619Z,47.50
2022-12-19T13:41:02.134Z,43.03
2022-12-19T13:43:46.393Z,49.30
2022-12-19T13:46:32.919Z,49.83
2022-12-19T13:49:02.911Z,48.03
2022-12-19T13:51:24.447Z,48.97
2022-12-19T13:53:45.963Z,46.40
2022-12-19T13:56:19.334Z,43.63
2022-12-19T13:59:05.035Z,43.83
2022-12-19T14:01:35.871Z,45.57
2022-12-19T14:04:07.987Z,48.87
2022-12-19T14:06:45.127Z,42.73
2022-12-19T14:11:24.227Z,51.30
2022-12-19T14:13:47.925Z,52.50
2022-12-19T14:15:13.407Z,54.73
2022-12-19T14:17:35.316Z,49.37
2022-12-19T14:20:34.069Z,54.17
2022-12-19T14:22:38.366Z,46.77
2022-12-19T14:25:50.190Z,53.07
2022-12-19T14:28:19.731Z,53.23
2022-12-19T14:30:35.258Z,47.57
2022-12-19T14:33:47.344Z,49.07
2022-12-19T14:36:15.204Z,50.17
2022-12-19T14:39:25.486Z,52.70
2022-12-19T14:41:47.366Z,47.83
2022-12-19T14:52:44.955Z,52.43
2022-12-19T14:53:52.662Z,51.93
2022-12-19T14:54:21.865Z,47.40
2022-12-19T14:54:29.065Z,47.70
2022-12-19T14:56:26.709Z,48.03
2022-12-19T14:58:56.994Z,48.77
2022-12-19T15:01:26.194Z,51.43
2022-12-19T15:04:51.789Z,51.43
2022-12-19T15:07:06.674Z,48.70
2022-12-19T15:11:04.446Z,49.47
2022-12-19T15:14:47.461Z,48.33
2022-12-19T15:15:25.432Z,49.40
2022-12-19T15:17:49.780Z,50.67
2022-12-19T15:20:11.429Z,49.87
2022-12-19T15:22:32.911Z,52.63
2022-12-19T15:24:54.507Z,54.63
2022-12-19T15:27:17.341Z,52.13
2022-12-19T15:29:38.971Z,52.07
2022-12-19T15:32:00.553Z,51.80
2022-12-19T15:34:34.885Z,51.77
2022-12-19T15:36:58.709Z,47.90
2022-12-19T15:39:20.911Z,52.90
2022-12-19T15:41:43.612Z,50.07
2022-12-19T15:44:10.130Z,52.70
2022-12-19T15:46:32.526Z,56.13
2022-12-19T15:48:54.208Z,45.17
2022-12-19T15:51:16.787Z,49.97
2022-12-19T15:53:41.105Z,47.63
2022-12-19T15:56:03.214Z,49.00
2022-12-19T15:58:28.369Z,55.23
2022-12-19T16:00:56.332Z,57.93
2022-12-19T16:03:23.512Z,52.67
2022-12-19T16:05:46.917Z,51.30
2022-12-19T16:08:19.569Z,49.83
2022-12-19T16:10:42.076Z,51.00
2022-12-19T16:13:03.975Z,46.57
2022-12-19T16:15:30.209Z,47.60
2022-12-19T16:17:52.471Z,47.73
2022-12-19T16:20:19.977Z,49.27
2022-12-19T16:22:42.544Z,46.97
2022-12-19T16:25:04.394Z,47.73
2022-12-19T16:27:31.011Z,50.90
2022-12-19T16:29:54.161Z,47.73
2022-12-19T16:32:16.354Z,49.27
2022-12-19T16:34:37.881Z,49.73
2022-12-19T16:36:59.347Z,53.80
2022-12-19T16:39:20.905Z,46.90
2022-12-19T16:41:44.194Z,50.10
2022-12-19T16:44:18.971Z,52.90
2022-12-19T16:46:44.232Z,51.87
2022-12-19T16:49:16.880Z,49.13
2022-12-19T16:51:38.725Z,53.53
2022-12-19T16:54:00.457Z,52.93
2022-12-19T16:56:25.639Z,47.90
2022-12-19T16:58:47.141Z,44.93
2022-12-19T17:01:10.317Z,53.27
2022-12-19T17:03:37.429Z,52.53
2022-12-19T17:05:59.183Z,52.10
2022-12-19T17:08:20.715Z,51.13
2022-12-19T17:10:45.244Z,52.43
2022-12-19T17:13:06.967Z,56.17
2022-12-19T17:15:34.430Z,53.67
2022-12-19T17:17:59.328Z,55.43
2022-12-19T17:20:23.289Z,57.40
2022-12-19T17:22:45.435Z,52.33
2022-12-19T17:25:18.693Z,58.00
2022-12-19T17:27:40.199Z,51.87
2022-12-19T17:30:01.699Z,52.70
2022-12-19T17:32:24.503Z,52.63
2022-12-19T17:34:46.309Z,57.50
2022-12-19T17:37:15.250Z,51.03
2022-12-19T17:39:37.909Z,48.13
2022-12-19T17:42:04.347Z,49.70
2022-12-19T17:44:25.847Z,52.07
2022-12-19T17:46:47.845Z,52.23
2022-12-19T17:49:16.975Z,111.03
2022-12-19T17:51:38.537Z,52.27
2022-12-19T17:54:00.033Z,54.53
2022-12-19T17:56:22.225Z,52.93
2022-12-19T17:58:43.912Z,51.57
2022-12-19T18:01:05.849Z,51.00
2022-12-19T18:03:27.512Z,51.13
2022-12-19T18:05:51.269Z,53.97
2022-12-19T18:08:32.482Z,46.10
2022-12-19T18:10:56.632Z,44.27
2022-12-19T18:13:18.242Z,48.97
2022-12-19T18:15:40.959Z,47.63
2022-12-19T18:18:02.541Z,49.27
2022-12-19T18:20:32.593Z,51.90
2022-12-19T18:22:55.936Z,52.43
2022-12-19T18:25:20.585Z,48.40
2022-12-19T18:27:42.576Z,55.07
2022-12-19T18:30:04.869Z,49.33
2022-12-19T18:32:26.493Z,54.67
2022-12-19T18:34:48.000Z,50.60
2022-12-19T18:37:14.940Z,48.33
2022-12-19T18:39:36.481Z,47.87
2022-12-19T18:41:58.088Z,46.70
2022-12-19T18:44:20.463Z,46.03
2022-12-19T18:46:42.621Z,47.13
2022-12-19T18:49:04.606Z,43.80
2022-12-19T18:51:26.116Z,48.67
2022-12-19T18:53:49.084Z,46.57
2022-12-19T18:56:11.214Z,47.93
2022-12-19T18:58:33.353Z,41.10
2022-12-19T19:00:59.369Z,49.60
2022-12-19T19:03:26.088Z,47.23
2022-12-19T19:05:47.871Z,41.73
2022-12-19T19:08:17.709Z,43.40
2022-12-19T19:10:39.287Z,44.83
2022-12-19T19:13:05.173Z,44.33
2022-12-19T19:15:33.630Z,47.60
2022-12-19T19:18:13.350Z,47.07
2022-12-19T19:20:38.637Z,45.93
2022-12-19T19:23:00.779Z,48.97
2022-12-19T19:25:22.317Z,47.83
2022-12-19T19:27:43.920Z,45.53
2022-12-19T19:30:06.613Z,49.93
2022-12-19T19:32:28.139Z,54.00
2022-12-19T19:34:49.865Z,52.00
2022-12-19T19:37:13.980Z,48.60
2022-12-19T19:39:35.710Z,49.53
2022-12-19T19:41:57.276Z,45.43
2022-12-19T19:44:18.896Z,50.80
2022-12-19T19:46:40.459Z,44.90
2022-12-19T19:49:02.007Z,48.93
2022-12-19T19:51:23.609Z,46.57
2022-12-19T19:53:45.983Z,46.50
2022-12-19T19:56:08.566Z,47.97
2022-12-19T19:58:30.460Z,46.27
2022-12-19T20:00:53.170Z,50.97
2022-12-19T20:03:22.308Z,46.30
2022-12-19T20:05:44.709Z,49.13
2022-12-19T20:08:06.539Z,49.10
2022-12-19T20:10:28.043Z,47.03
2022-12-19T20:12:49.509Z,43.17
2022-12-19T20:15:11.956Z,46.37
2022-12-19T20:17:33.537Z,48.03
2022-12-19T20:19:55.041Z,48.23
2022-12-19T20:22:16.679Z,49.07
2022-12-19T20:24:38.290Z,82.27
2022-12-19T20:26:59.901Z,62.03
2022-12-19T20:29:21.463Z,86.00
2022-12-19T20:31:44.073Z,58.77
2022-12-19T20:34:05.826Z,51.27
2022-12-19T20:36:27.364Z,46.47
2022-12-19T20:38:49.430Z,53.40
2022-12-19T20:41:10.975Z,65.27
2022-12-19T20:43:33.740Z,54.97
2022-12-19T20:46:03.646Z,57.50
2022-12-19T20:48:25.141Z,50.30
2022-12-19T20:50:46.617Z,46.70
2022-12-19T20:53:08.408Z,45.90
2022-12-19T20:55:29.893Z,49.50
2022-12-19T20:57:51.354Z,50.90
2022-12-19T21:00:14.836Z,51.87
2022-12-19T21:02:52.997Z,48.30
2022-12-19T21:05:19.657Z,48.90
2022-12-19T21:07:41.191Z,59.83
2022-12-19T21:10:02.700Z,74.77
2022-12-19T21:12:24.191Z,57.07
2022-12-19T21:14:45.681Z,45.63
2022-12-19T21:17:07.145Z,53.40
2022-12-19T21:19:28.629Z,51.23
2022-12-19T21:21:50.208Z,50.00
2022-12-19T21:24:12.117Z,50.77
2022-12-19T21:26:34.093Z,53.50
2022-12-19T21:28:57.990Z,46.57
2022-12-19T21:31:22.435Z,51.77
2022-12-19T21:33:45.576Z,49.90
2022-12-19T21:36:09.592Z,49.33
2022-12-19T21:38:31.084Z,51.00
2022-12-19T21:40:52.622Z,50.00
2022-12-19T21:43:14.364Z,46.60
2022-12-19T21:45:35.878Z,49.17
2022-12-19T21:47:57.349Z,46.60
2022-12-19T21:50:18.832Z,53.77
2022-12-19T21:52:40.818Z,50.57
2022-12-19T21:55:02.569Z,47.93
2022-12-19T21:57:24.060Z,48.97
2022-12-19T21:59:45.649Z,45.63
2022-12-19T22:02:10.534Z,48.77
2022-12-19T22:04:32.138Z,47.90
2022-12-19T22:06:53.771Z,50.10
2022-12-19T22:09:17.883Z,51.10
2022-12-19T22:11:39.613Z,50.80
2022-12-19T22:14:01.718Z,44.07
2022-12-19T22:16:23.263Z,50.23
2022-12-19T22:18:45.091Z,50.90
2022-12-19T22:21:09.278Z,44.60
2022-12-19T22:23:30.870Z,45.90
2022-12-19T22:26:07.043Z,51.23
2022-12-19T22:28:34.144Z,47.47
2022-12-19T22:30:55.629Z,43.77
2022-12-19T22:33:17.102Z,46.37
2022-12-19T22:35:38.669Z,50.63
2022-12-19T22:38:00.189Z,47.40
2022-12-19T22:40:21.718Z,49.90
2022-12-19T22:42:43.210Z,49.53
2022-12-19T22:45:05.124Z,51.60
2022-12-19T22:47:26.618Z,49.43
2022-12-19T22:49:52.175Z,47.30
2022-12-19T22:52:13.713Z,46.90
2022-12-19T22:54:35.169Z,49.87
2022-12-19T22:56:56.689Z,50.80
2022-12-19T22:59:18.202Z,47.80
2022-12-19T23:01:42.722Z,49.90
2022-12-19T23:04:06.791Z,51.97
2022-12-19T23:06:30.932Z,52.40
2022-12-19T23:08:52.524Z,47.77
2022-12-19T23:11:17.609Z,48.57
2022-12-19T23:13:40.666Z,47.77
2022-12-19T23:16:02.234Z,47.27
2022-12-19T23:18:24.115Z,42.90
2022-12-19T23:20:45.668Z,44.90
2022-12-19T23:23:07.168Z,43.53
2022-12-19T23:25:28.666Z,44.47
2022-12-19T23:27:50.163Z,42.60
2022-12-19T23:30:11.909Z,48.50
2022-12-19T23:32:33.390Z,50.03
2022-12-19T23:34:54.895Z,46.80
2022-12-19T23:37:16.337Z,50.47
2022-12-19T23:39:37.881Z,46.23
2022-12-19T23:41:59.804Z,45.03
2022-12-19T23:44:21.593Z,44.00
2022-12-19T23:46:43.084Z,45.73
2022-12-19T23:49:04.602Z,46.27
2022-12-19T23:51:27.277Z,45.17
2022-12-19T23:53:48.910Z,47.53
2022-12-19T23:56:13.996Z,46.67
2022-12-19T23:58:35.561Z,45.63
